Time,TemperatureF,DewpointF,PressureIn,WindDirection,WindDirectionDegrees,WindSpeedMPH,WindSpeedGustMPH,Humidity,HourlyPrecipIn,Conditions,Clouds,dailyrainin,SoftwareType,DateUTC
2013-03-15 00:06:00,23.2,8.6,29.75,NE,45,5.3,-999.0,53,-99.99,,,0.00,Acu-Link.com,2013-03-15 04:06:00,
2013-03-15 00:22:00,23.0,9.7,29.75,SSE,157,2.7,-999.0,56,-99.99,,,0.00,Acu-Link.com,2013-03-15 04:22:00,
2013-03-15 00:45:00,22.6,8.9,29.75,NNW,337,5.3,-999.0,55,-99.99,,,0.00,Acu-Link.com,2013-03-15 04:45:00,
2013-03-15 01:31:00,22.5,9.2,29.76,East,90,4.7,-999.0,56,-99.99,,,0.00,Acu-Link.com,2013-03-15 05:31:00,
2013-03-15 01:47:00,22.5,9.2,29.76,NNW,337,4.2,-999.0,56,-99.99,,,0.00,Acu-Link.com,2013-03-15 05:47:00,
2013-03-15 02:02:00,22.5,9.6,29.77,West,270,5.3,-999.0,57,-99.99,,,0.00,Acu-Link.com,2013-03-15 06:02:00,
2013-03-15 02:17:00,22.3,9.0,29.76,NNW,337,3.2,-999.0,56,-99.99,,,0.00,Acu-Link.com,2013-03-15 06:17:00,
2013-03-15 02:33:00,22.3,9.4,29.77,NNW,337,12.5,-999.0,57,-99.99,,,0.00,Acu-Link.com,2013-03-15 06:33:00,
2013-03-15 02:48:00,22.3,9.4,29.77,North,0,6.8,-999.0,57,-99.99,,,0.00,Acu-Link.com,2013-03-15 06:48:00,
2013-03-15 03:03:00,22.3,9.4,29.76,ENE,67,2.7,-999.0,57,-99.99,,,0.00,Acu-Link.com,2013-03-15 07:03:00,
2013-03-15 03:19:00,22.1,9.6,29.76,SW,225,3.2,-999.0,58,-99.99,,,0.00,Acu-Link.com,2013-03-15 07:19:00,
2013-03-15 03:34:00,21.7,9.2,29.76,West,270,6.3,-999.0,58,-99.99,,,0.00,Acu-Link.com,2013-03-15 07:34:00,
2013-03-15 03:49:00,21.6,9.5,29.76,SSE,157,2.7,-999.0,59,-99.99,,,0.00,Acu-Link.com,2013-03-15 07:49:00,
2013-03-15 04:04:00,21.4,8.9,29.76,NE,45,4.7,-999.0,58,-99.99,,,0.00,Acu-Link.com,2013-03-15 08:04:00,
2013-03-15 04:19:00,21.4,8.6,29.75,NNW,337,4.7,-999.0,57,-99.99,,,0.00,Acu-Link.com,2013-03-15 08:19:00,
2013-03-15 04:34:00,21.2,8.0,29.76,NNW,337,3.7,-999.0,56,-99.99,,,0.00,Acu-Link.com,2013-03-15 08:34:00,
2013-03-15 04:50:00,21.0,6.6,29.77,NNW,337,6.3,-999.0,53,-99.99,,,0.00,Acu-Link.com,2013-03-15 08:50:00,
2013-03-15 05:05:00,20.8,7.2,29.77,West,270,4.2,-999.0,55,-99.99,,,0.00,Acu-Link.com,2013-03-15 09:05:00,
2013-03-15 05:20:00,20.5,6.1,29.77,SW,225,4.2,-999.0,53,-99.99,,,0.00,Acu-Link.com,2013-03-15 09:20:00,
2013-03-15 05:36:00,20.3,6.3,29.78,ESE,112,3.7,-999.0,54,-99.99,,,0.00,Acu-Link.com,2013-03-15 09:36:00,
2013-03-15 06:06:00,19.6,6.1,29.77,North,0,4.2,-999.0,55,-99.99,,,0.00,Acu-Link.com,2013-03-15 10:06:00,
2013-03-15 06:22:00,19.8,6.7,29.78,NE,45,4.7,-999.0,56,-99.99,,,0.00,Acu-Link.com,2013-03-15 10:22:00,
2013-03-15 06:37:00,19.6,6.5,29.78,SSW,202,2.2,-999.0,56,-99.99,,,0.00,Acu-Link.com,2013-03-15 10:37:00,
2013-03-15 07:25:00,20.8,6.8,29.79,NNE,22,5.3,-999.0,54,-99.99,,,0.00,Acu-Link.com,2013-03-15 11:25:00,
2013-03-15 07:55:00,20.8,6.8,29.78,WNW,292,4.2,-999.0,54,-99.99,,,0.00,Acu-Link.com,2013-03-15 11:55:00,
2013-03-15 08:13:00,22.6,7.2,29.79,NE,45,4.7,-999.0,51,-99.99,,,0.00,Acu-Link.com,2013-03-15 12:13:00,
2013-03-15 10:34:00,27.1,9.6,29.77,West,270,4.2,-999.0,47,-99.99,,,0.00,Acu-Link.com,2013-03-15 14:34:00,
2013-03-15 11:06:00,29.3,9.1,29.76,South,180,4.2,-999.0,42,-99.99,,,0.00,Acu-Link.com,2013-03-15 15:06:00,
2013-03-15 11:38:00,31.1,10.2,29.75,North,0,7.8,-999.0,41,-99.99,,,0.00,Acu-Link.com,2013-03-15 15:38:00,
2013-03-15 11:53:00,30.7,9.3,29.74,WSW,247,6.8,-999.0,40,-99.99,,,0.00,Acu-Link.com,2013-03-15 15:53:00,
2013-03-15 12:14:00,32.5,9.7,29.73,West,270,1.7,-999.0,38,-99.99,,,0.00,Acu-Link.com,2013-03-15 16:14:00,
2013-03-15 12:30:00,32.7,9.9,29.72,SW,225,6.3,-999.0,38,-99.99,,,0.00,Acu-Link.com,2013-03-15 16:30:00,
2013-03-15 12:55:00,35.6,9.4,29.70,WNW,292,2.2,-999.0,33,-99.99,,,0.00,Acu-Link.com,2013-03-15 16:55:00,
2013-03-15 13:10:00,36.7,8.9,29.69,NNW,337,3.2,-999.0,31,-99.99,,,0.00,Acu-Link.com,2013-03-15 17:10:00,
2013-03-15 13:41:00,37.0,7.7,29.68,SW,225,7.8,-999.0,29,-99.99,,,0.00,Acu-Link.com,2013-03-15 17:41:00,
2013-03-15 13:56:00,39.0,8.7,29.66,SW,225,4.2,-999.0,28,-99.99,,,0.00,Acu-Link.com,2013-03-15 17:56:00,
2013-03-15 14:11:00,38.5,8.3,29.64,West,270,2.2,-999.0,28,-99.99,,,0.00,Acu-Link.com,2013-03-15 18:11:00,
2013-03-15 14:27:00,40.5,7.5,29.63,West,270,5.3,-999.0,25,-99.99,,,0.00,Acu-Link.com,2013-03-15 18:27:00,
2013-03-15 14:42:00,40.8,7.7,29.62,WSW,247,4.7,-999.0,25,-99.99,,,0.00,Acu-Link.com,2013-03-15 18:42:00,
2013-03-15 14:57:00,40.1,8.8,29.61,WSW,247,6.3,-999.0,27,-99.99,,,0.00,Acu-Link.com,2013-03-15 18:57:00,
2013-03-15 15:12:00,39.7,8.5,29.60,South,180,8.9,-999.0,27,-99.99,,,0.00,Acu-Link.com,2013-03-15 19:12:00,
2013-03-15 15:30:00,42.3,10.7,29.60,NW,315,5.3,-999.0,27,-99.99,,,0.00,Acu-Link.com,2013-03-15 19:30:00,
2013-03-15 16:19:00,42.1,15.1,29.58,NW,315,9.9,-999.0,33,-99.99,,,0.00,Acu-Link.com,2013-03-15 20:19:00,
2013-03-15 16:38:00,41.0,15.5,29.57,SW,225,9.4,-999.0,35,-99.99,,,0.00,Acu-Link.com,2013-03-15 20:38:00,
2013-03-15 16:53:00,42.6,16.9,29.57,ENE,67,7.8,-999.0,35,-99.99,,,0.00,Acu-Link.com,2013-03-15 20:53:00,
2013-03-15 17:09:00,43.0,16.6,29.56,South,180,5.3,-999.0,34,-99.99,,,0.00,Acu-Link.com,2013-03-15 21:09:00,
2013-03-15 17:24:00,43.0,17.2,29.56,WSW,247,9.9,-999.0,35,-99.99,,,0.00,Acu-Link.com,2013-03-15 21:24:00,
2013-03-15 17:40:00,42.4,17.4,29.55,WSW,247,4.7,-999.0,36,-99.99,,,0.00,Acu-Link.com,2013-03-15 21:40:00,